sensor_id;sensor_type;location;lat;lon;timestamp;temperature;humidity
11569;DHT22;5840;46.894;15.542;2022-12-10T00:01:31;1.80;99.90
11569;DHT22;5840;46.894;15.542;2022-12-10T00:03:59;1.80;99.90
11569;DHT22;5840;46.894;15.542;2022-12-10T00:06:28;1.80;99.90
11569;DHT22;5840;46.894;15.542;2022-12-10T00:08:58;1.80;99.90
11569;DHT22;5840;46.894;15.542;2022-12-10T00:11:25;1.80;99.90
11569;DHT22;5840;46.894;15.542;2022-12-10T00:13:52;1.80;99.90
11569;DHT22;5840;46.894;15.542;2022-12-10T00:16:21;1.80;99.90
11569;DHT22;5840;46.894;15.542;2022-12-10T00:18:48;1.80;99.90
11569;DHT22;5840;46.894;15.542;2022-12-10T00:21:17;1.80;99.90
11569;DHT22;5840;46.894;15.542;2022-12-10T00:23:45;1.80;99.90
11569;DHT22;5840;46.894;15.542;2022-12-10T00:26:15;1.90;99.90
11569;DHT22;5840;46.894;15.542;2022-12-10T00:28:43;1.90;99.90
11569;DHT22;5840;46.894;15.542;2022-12-10T00:31:11;1.90;99.90
11569;DHT22;5840;46.894;15.542;2022-12-10T00:33:40;1.90;99.90
11569;DHT22;5840;46.894;15.542;2022-12-10T00:36:09;1.90;99.90
11569;DHT22;5840;46.894;15.542;2022-12-10T00:38:37;1.90;99.90
11569;DHT22;5840;46.894;15.542;2022-12-10T00:41:05;1.90;99.90
11569;DHT22;5840;46.894;15.542;2022-12-10T00:43:33;2.00;99.90
11569;DHT22;5840;46.894;15.542;2022-12-10T00:46:00;2.00;99.90
11569;DHT22;5840;46.894;15.542;2022-12-10T00:48:28;1.90;99.90
11569;DHT22;5840;46.894;15.542;2022-12-10T00:50:56;2.00;99.90
11569;DHT22;5840;46.894;15.542;2022-12-10T00:53:23;2.00;99.90
11569;DHT22;5840;46.894;15.542;2022-12-10T00:55:51;2.00;99.90
11569;DHT22;5840;46.894;15.542;2022-12-10T00:58:18;2.00;99.90
11569;DHT22;5840;46.894;15.542;2022-12-10T01:00:46;2.00;99.90
11569;DHT22;5840;46.894;15.542;2022-12-10T01:03:14;2.00;99.90
11569;DHT22;5840;46.894;15.542;2022-12-10T01:05:41;2.10;99.90
11569;DHT22;5840;46.894;15.542;2022-12-10T01:08:08;2.10;99.90
11569;DHT22;5840;46.894;15.542;2022-12-10T01:10:35;2.10;99.90
11569;DHT22;5840;46.894;15.542;2022-12-10T01:13:02;2.10;99.90
11569;DHT22;5840;46.894;15.542;2022-12-10T01:15:30;2.10;99.90
11569;DHT22;5840;46.894;15.542;2022-12-10T01:17:58;2.10;99.90
11569;DHT22;5840;46.894;15.542;2022-12-10T01:20:25;2.20;99.90
11569;DHT22;5840;46.894;15.542;2022-12-10T01:22:52;2.20;99.90
11569;DHT22;5840;46.894;15.542;2022-12-10T01:25:19;2.10;99.90
11569;DHT22;5840;46.894;15.542;2022-12-10T01:27:45;2.10;99.90
11569;DHT22;5840;46.894;15.542;2022-12-10T01:30:12;2.10;99.90
11569;DHT22;5840;46.894;15.542;2022-12-10T01:32:39;2.10;99.90
11569;DHT22;5840;46.894;15.542;2022-12-10T01:35:08;2.10;99.90
11569;DHT22;5840;46.894;15.542;2022-12-10T01:37:35;2.10;99.90
11569;DHT22;5840;46.894;15.542;2022-12-10T01:40:03;2.20;99.90
11569;DHT22;5840;46.894;15.542;2022-12-10T01:42:30;2.20;99.90
11569;DHT22;5840;46.894;15.542;2022-12-10T01:45:01;2.20;99.90
11569;DHT22;5840;46.894;15.542;2022-12-10T01:47:29;2.20;99.90
11569;DHT22;5840;46.894;15.542;2022-12-10T01:49:57;2.20;99.90
11569;DHT22;5840;46.894;15.542;2022-12-10T01:52:28;2.20;99.90
11569;DHT22;5840;46.894;15.542;2022-12-10T01:54:55;2.20;99.90
11569;DHT22;5840;46.894;15.542;2022-12-10T01:57:24;2.30;99.90
11569;DHT22;5840;46.894;15.542;2022-12-10T01:59:53;2.30;99.90
11569;DHT22;5840;46.894;15.542;2022-12-10T02:02:29;2.30;99.90
11569;DHT22;5840;46.894;15.542;2022-12-10T02:05:06;2.30;99.90
11569;DHT22;5840;46.894;15.542;2022-12-10T02:07:44;2.30;99.90
11569;DHT22;5840;46.894;15.542;2022-12-10T02:10:22;2.30;99.90
11569;DHT22;5840;46.894;15.542;2022-12-10T02:12:57;2.30;99.90
11569;DHT22;5840;46.894;15.542;2022-12-10T02:15:26;2.30;99.90
11569;DHT22;5840;46.894;15.542;2022-12-10T02:17:56;2.30;99.90
11569;DHT22;5840;46.894;15.542;2022-12-10T02:20:28;2.30;99.90
11569;DHT22;5840;46.894;15.542;2022-12-10T02:23:01;2.30;99.90
11569;DHT22;5840;46.894;15.542;2022-12-10T02:25:32;2.40;99.90
11569;DHT22;5840;46.894;15.542;2022-12-10T02:28:05;2.40;99.90
11569;DHT22;5840;46.894;15.542;2022-12-10T02:30:39;2.40;99.90
11569;DHT22;5840;46.894;15.542;2022-12-10T02:33:07;2.40;99.90
11569;DHT22;5840;46.894;15.542;2022-12-10T02:35:36;2.40;99.90
11569;DHT22;5840;46.894;15.542;2022-12-10T02:38:10;2.40;99.90
11569;DHT22;5840;46.894;15.542;2022-12-10T02:40:38;2.40;99.90
11569;DHT22;5840;46.894;15.542;2022-12-10T02:43:09;2.40;99.90
11569;DHT22;5840;46.894;15.542;2022-12-10T02:45:38;2.40;99.90
11569;DHT22;5840;46.894;15.542;2022-12-10T02:48:05;2.40;99.90
11569;DHT22;5840;46.894;15.542;2022-12-10T02:50:33;2.40;99.90
11569;DHT22;5840;46.894;15.542;2022-12-10T02:53:00;2.40;99.90
11569;DHT22;5840;46.894;15.542;2022-12-10T02:55:30;2.40;99.90
11569;DHT22;5840;46.894;15.542;2022-12-10T02:58:09;2.40;99.90
11569;DHT22;5840;46.894;15.542;2022-12-10T03:00:47;2.50;99.90
11569;DHT22;5840;46.894;15.542;2022-12-10T03:03:32;2.50;99.90
11569;DHT22;5840;46.894;15.542;2022-12-10T03:06:07;2.50;99.90
11569;DHT22;5840;46.894;15.542;2022-12-10T03:08:40;2.50;99.90
11569;DHT22;5840;46.894;15.542;2022-12-10T03:11:12;2.50;99.90
11569;DHT22;5840;46.894;15.542;2022-12-10T03:13:45;2.50;99.90
11569;DHT22;5840;46.894;15.542;2022-12-10T03:16:16;2.60;99.90
11569;DHT22;5840;46.894;15.542;2022-12-10T03:18:47;2.60;99.90
11569;DHT22;5840;46.894;15.542;2022-12-10T03:21:16;2.60;99.90
11569;DHT22;5840;46.894;15.542;2022-12-10T03:23:46;2.60;99.90
11569;DHT22;5840;46.894;15.542;2022-12-10T03:26:14;2.60;99.90
11569;DHT22;5840;46.894;15.542;2022-12-10T03:28:46;2.60;99.90
11569;DHT22;5840;46.894;15.542;2022-12-10T03:31:16;2.60;99.90
11569;DHT22;5840;46.894;15.542;2022-12-10T03:33:44;2.60;99.90
11569;DHT22;5840;46.894;15.542;2022-12-10T03:36:12;2.70;99.90
11569;DHT22;5840;46.894;15.542;2022-12-10T03:38:40;2.70;99.90
11569;DHT22;5840;46.894;15.542;2022-12-10T03:41:07;2.70;99.90
11569;DHT22;5840;46.894;15.542;2022-12-10T03:43:34;2.60;99.90
11569;DHT22;5840;46.894;15.542;2022-12-10T03:46:01;2.60;99.90
11569;DHT22;5840;46.894;15.542;2022-12-10T03:48:30;2.60;99.90
11569;DHT22;5840;46.894;15.542;2022-12-10T03:50:57;2.60;99.90
11569;DHT22;5840;46.894;15.542;2022-12-10T03:53:24;2.60;99.90
11569;DHT22;5840;46.894;15.542;2022-12-10T03:55:50;2.60;99.90
11569;DHT22;5840;46.894;15.542;2022-12-10T03:58:17;2.70;99.90
11569;DHT22;5840;46.894;15.542;2022-12-10T04:00:44;2.60;99.90
11569;DHT22;5840;46.894;15.542;2022-12-10T04:03:11;2.70;99.90
11569;DHT22;5840;46.894;15.542;2022-12-10T04:05:39;2.70;99.90
11569;DHT22;5840;46.894;15.542;2022-12-10T04:08:06;2.70;99.90
11569;DHT22;5840;46.894;15.542;2022-12-10T04:10:35;2.70;99.90
11569;DHT22;5840;46.894;15.542;2022-12-10T04:13:02;2.70;99.90
11569;DHT22;5840;46.894;15.542;2022-12-10T04:15:46;2.70;99.90
11569;DHT22;5840;46.894;15.542;2022-12-10T04:18:31;2.70;99.90
11569;DHT22;5840;46.894;15.542;2022-12-10T04:20:59;2.80;99.90
11569;DHT22;5840;46.894;15.542;2022-12-10T04:23:43;2.70;99.90
11569;DHT22;5840;46.894;15.542;2022-12-10T04:26:27;2.80;99.90
11569;DHT22;5840;46.894;15.542;2022-12-10T04:29:11;2.80;99.90
11569;DHT22;5840;46.894;15.542;2022-12-10T04:31:38;2.80;99.90
11569;DHT22;5840;46.894;15.542;2022-12-10T04:34:05;2.70;99.90
11569;DHT22;5840;46.894;15.542;2022-12-10T04:36:34;2.70;99.90
11569;DHT22;5840;46.894;15.542;2022-12-10T04:39:01;2.70;99.90
11569;DHT22;5840;46.894;15.542;2022-12-10T04:41:27;2.80;99.90
11569;DHT22;5840;46.894;15.542;2022-12-10T04:43:54;2.80;99.90
11569;DHT22;5840;46.894;15.542;2022-12-10T04:46:21;2.80;99.90
11569;DHT22;5840;46.894;15.542;2022-12-10T04:48:48;2.70;99.90
11569;DHT22;5840;46.894;15.542;2022-12-10T04:51:15;2.80;99.90
11569;DHT22;5840;46.894;15.542;2022-12-10T04:53:44;2.80;99.90
11569;DHT22;5840;46.894;15.542;2022-12-10T04:56:10;2.80;99.90
11569;DHT22;5840;46.894;15.542;2022-12-10T04:58:37;2.70;99.90
11569;DHT22;5840;46.894;15.542;2022-12-10T05:01:06;2.70;99.90
11569;DHT22;5840;46.894;15.542;2022-12-10T05:03:33;2.80;99.90
11569;DHT22;5840;46.894;15.542;2022-12-10T05:06:01;2.80;99.90
11569;DHT22;5840;46.894;15.542;2022-12-10T05:08:29;2.80;99.90
11569;DHT22;5840;46.894;15.542;2022-12-10T05:11:00;2.80;99.90
11569;DHT22;5840;46.894;15.542;2022-12-10T05:13:28;2.80;99.90
11569;DHT22;5840;46.894;15.542;2022-12-10T05:15:55;2.80;99.90
11569;DHT22;5840;46.894;15.542;2022-12-10T05:18:22;2.90;99.90
11569;DHT22;5840;46.894;15.542;2022-12-10T05:20:48;2.80;99.90
11569;DHT22;5840;46.894;15.542;2022-12-10T05:23:15;2.90;99.90
11569;DHT22;5840;46.894;15.542;2022-12-10T05:26:03;2.90;99.90
11569;DHT22;5840;46.894;15.542;2022-12-10T05:28:31;2.90;99.90
11569;DHT22;5840;46.894;15.542;2022-12-10T05:30:59;2.90;99.90
11569;DHT22;5840;46.894;15.542;2022-12-10T05:33:26;2.90;99.90
11569;DHT22;5840;46.894;15.542;2022-12-10T05:35:54;2.90;99.90
11569;DHT22;5840;46.894;15.542;2022-12-10T05:38:22;2.90;99.90
11569;DHT22;5840;46.894;15.542;2022-12-10T05:40:49;2.90;99.90
11569;DHT22;5840;46.894;15.542;2022-12-10T05:43:18;2.90;99.90
11569;DHT22;5840;46.894;15.542;2022-12-10T05:45:45;2.90;99.90
11569;DHT22;5840;46.894;15.542;2022-12-10T05:48:13;2.90;99.90
11569;DHT22;5840;46.894;15.542;2022-12-10T05:50:41;2.90;99.90
11569;DHT22;5840;46.894;15.542;2022-12-10T05:53:08;2.80;99.90
11569;DHT22;5840;46.894;15.542;2022-12-10T05:55:35;2.90;99.90
11569;DHT22;5840;46.894;15.542;2022-12-10T05:58:02;2.80;99.90
11569;DHT22;5840;46.894;15.542;2022-12-10T06:00:30;2.80;99.90
11569;DHT22;5840;46.894;15.542;2022-12-10T06:02:57;2.80;99.90
11569;DHT22;5840;46.894;15.542;2022-12-10T06:05:24;2.80;99.90
11569;DHT22;5840;46.894;15.542;2022-12-10T06:07:51;2.80;99.90
11569;DHT22;5840;46.894;15.542;2022-12-10T06:10:18;2.90;99.90
11569;DHT22;5840;46.894;15.542;2022-12-10T06:12:45;2.90;99.90
11569;DHT22;5840;46.894;15.542;2022-12-10T06:15:12;2.90;99.90
11569;DHT22;5840;46.894;15.542;2022-12-10T06:17:40;2.90;99.90
11569;DHT22;5840;46.894;15.542;2022-12-10T06:20:08;2.90;99.90
11569;DHT22;5840;46.894;15.542;2022-12-10T06:22:35;2.90;99.90
11569;DHT22;5840;46.894;15.542;2022-12-10T06:25:02;2.90;99.90
11569;DHT22;5840;46.894;15.542;2022-12-10T06:27:30;2.90;99.90
11569;DHT22;5840;46.894;15.542;2022-12-10T06:29:57;2.90;99.90
11569;DHT22;5840;46.894;15.542;2022-12-10T06:32:24;2.90;99.90
11569;DHT22;5840;46.894;15.542;2022-12-10T06:34:53;3.00;99.90
11569;DHT22;5840;46.894;15.542;2022-12-10T06:37:20;3.00;99.90
11569;DHT22;5840;46.894;15.542;2022-12-10T06:39:49;3.00;99.90
11569;DHT22;5840;46.894;15.542;2022-12-10T06:42:16;3.00;99.90
11569;DHT22;5840;46.894;15.542;2022-12-10T06:44:43;3.00;99.90
11569;DHT22;5840;46.894;15.542;2022-12-10T06:47:10;3.00;99.90
11569;DHT22;5840;46.894;15.542;2022-12-10T06:49:37;3.00;99.90
11569;DHT22;5840;46.894;15.542;2022-12-10T06:52:06;3.10;99.90
11569;DHT22;5840;46.894;15.542;2022-12-10T06:54:33;3.10;99.90
11569;DHT22;5840;46.894;15.542;2022-12-10T06:57:00;3.10;99.90
11569;DHT22;5840;46.894;15.542;2022-12-10T06:59:27;3.10;99.90
11569;DHT22;5840;46.894;15.542;2022-12-10T07:01:53;3.10;99.90
11569;DHT22;5840;46.894;15.542;2022-12-10T07:04:20;3.10;99.90
11569;DHT22;5840;46.894;15.542;2022-12-10T07:06:47;3.10;99.90
11569;DHT22;5840;46.894;15.542;2022-12-10T07:09:16;3.10;99.90
11569;DHT22;5840;46.894;15.542;2022-12-10T07:11:43;3.10;99.90
11569;DHT22;5840;46.894;15.542;2022-12-10T07:14:13;3.10;99.90
11569;DHT22;5840;46.894;15.542;2022-12-10T07:16:41;3.10;99.90
11569;DHT22;5840;46.894;15.542;2022-12-10T07:19:10;3.10;99.90
11569;DHT22;5840;46.894;15.542;2022-12-10T07:21:40;3.10;99.90
11569;DHT22;5840;46.894;15.542;2022-12-10T07:24:09;3.10;99.90
11569;DHT22;5840;46.894;15.542;2022-12-10T07:26:41;3.10;99.90
11569;DHT22;5840;46.894;15.542;2022-12-10T07:29:13;3.10;99.90
11569;DHT22;5840;46.894;15.542;2022-12-10T07:31:40;3.20;99.90
11569;DHT22;5840;46.894;15.542;2022-12-10T07:34:08;3.20;99.90
11569;DHT22;5840;46.894;15.542;2022-12-10T07:36:36;3.20;99.90
11569;DHT22;5840;46.894;15.542;2022-12-10T07:39:05;3.20;99.90
11569;DHT22;5840;46.894;15.542;2022-12-10T07:41:33;3.20;99.90
11569;DHT22;5840;46.894;15.542;2022-12-10T07:44:02;3.20;99.90
11569;DHT22;5840;46.894;15.542;2022-12-10T07:46:32;3.10;99.90
11569;DHT22;5840;46.894;15.542;2022-12-10T07:49:00;3.10;99.90
11569;DHT22;5840;46.894;15.542;2022-12-10T07:51:27;3.20;99.90
11569;DHT22;5840;46.894;15.542;2022-12-10T07:53:55;3.20;99.90
11569;DHT22;5840;46.894;15.542;2022-12-10T07:56:22;3.10;99.90
11569;DHT22;5840;46.894;15.542;2022-12-10T07:58:50;3.10;99.90
11569;DHT22;5840;46.894;15.542;2022-12-10T08:01:20;3.10;99.90
11569;DHT22;5840;46.894;15.542;2022-12-10T08:03:48;3.10;99.90
11569;DHT22;5840;46.894;15.542;2022-12-10T08:06:17;3.10;99.90
11569;DHT22;5840;46.894;15.542;2022-12-10T08:08:44;3.10;99.90
11569;DHT22;5840;46.894;15.542;2022-12-10T08:11:13;3.00;99.90
11569;DHT22;5840;46.894;15.542;2022-12-10T08:13:40;3.00;99.90
11569;DHT22;5840;46.894;15.542;2022-12-10T08:16:10;3.10;99.90
11569;DHT22;5840;46.894;15.542;2022-12-10T08:18:39;3.10;99.90
11569;DHT22;5840;46.894;15.542;2022-12-10T08:21:07;3.10;99.90
11569;DHT22;5840;46.894;15.542;2022-12-10T08:23:35;3.10;99.90
11569;DHT22;5840;46.894;15.542;2022-12-10T08:26:03;3.10;99.90
11569;DHT22;5840;46.894;15.542;2022-12-10T08:28:31;3.10;99.90
11569;DHT22;5840;46.894;15.542;2022-12-10T08:30:57;3.10;99.90
11569;DHT22;5840;46.894;15.542;2022-12-10T08:33:24;3.20;99.90
11569;DHT22;5840;46.894;15.542;2022-12-10T08:35:57;3.20;99.90
11569;DHT22;5840;46.894;15.542;2022-12-10T08:38:24;3.20;99.90
11569;DHT22;5840;46.894;15.542;2022-12-10T08:40:50;3.30;99.90
11569;DHT22;5840;46.894;15.542;2022-12-10T08:43:17;3.20;99.90
11569;DHT22;5840;46.894;15.542;2022-12-10T08:45:44;3.20;99.90
11569;DHT22;5840;46.894;15.542;2022-12-10T08:48:11;3.20;99.90
11569;DHT22;5840;46.894;15.542;2022-12-10T08:50:38;3.20;99.90
11569;DHT22;5840;46.894;15.542;2022-12-10T08:53:07;3.20;99.90
11569;DHT22;5840;46.894;15.542;2022-12-10T08:55:38;3.20;99.90
11569;DHT22;5840;46.894;15.542;2022-12-10T08:58:05;3.20;99.90
11569;DHT22;5840;46.894;15.542;2022-12-10T09:00:32;3.20;99.90
11569;DHT22;5840;46.894;15.542;2022-12-10T09:02:59;3.20;99.90
11569;DHT22;5840;46.894;15.542;2022-12-10T09:05:26;3.20;99.90
11569;DHT22;5840;46.894;15.542;2022-12-10T09:07:53;3.20;99.90
11569;DHT22;5840;46.894;15.542;2022-12-10T09:10:21;3.20;99.90
11569;DHT22;5840;46.894;15.542;2022-12-10T09:12:48;3.20;99.90
11569;DHT22;5840;46.894;15.542;2022-12-10T09:15:15;3.20;99.90
11569;DHT22;5840;46.894;15.542;2022-12-10T09:17:42;3.20;99.90
11569;DHT22;5840;46.894;15.542;2022-12-10T09:20:09;3.20;99.90
11569;DHT22;5840;46.894;15.542;2022-12-10T09:22:36;3.30;99.90
11569;DHT22;5840;46.894;15.542;2022-12-10T09:25:04;3.20;99.90
11569;DHT22;5840;46.894;15.542;2022-12-10T09:27:33;3.20;99.90
11569;DHT22;5840;46.894;15.542;2022-12-10T09:30:00;3.20;99.90
11569;DHT22;5840;46.894;15.542;2022-12-10T09:32:27;3.20;99.90
11569;DHT22;5840;46.894;15.542;2022-12-10T09:34:54;3.20;99.90
11569;DHT22;5840;46.894;15.542;2022-12-10T09:37:21;3.20;99.90
11569;DHT22;5840;46.894;15.542;2022-12-10T09:39:48;3.20;99.90
11569;DHT22;5840;46.894;15.542;2022-12-10T09:42:26;3.20;99.90
11569;DHT22;5840;46.894;15.542;2022-12-10T09:45:03;3.20;99.90
11569;DHT22;5840;46.894;15.542;2022-12-10T09:47:35;3.20;99.90
11569;DHT22;5840;46.894;15.542;2022-12-10T09:50:11;3.20;99.90
11569;DHT22;5840;46.894;15.542;2022-12-10T09:52:41;3.20;99.90
11569;DHT22;5840;46.894;15.542;2022-12-10T09:55:12;3.20;99.90
11569;DHT22;5840;46.894;15.542;2022-12-10T09:57:42;3.20;99.90
11569;DHT22;5840;46.894;15.542;2022-12-10T10:00:20;3.20;99.90
11569;DHT22;5840;46.894;15.542;2022-12-10T10:02:48;3.20;99.90
11569;DHT22;5840;46.894;15.542;2022-12-10T10:05:20;3.20;99.90
11569;DHT22;5840;46.894;15.542;2022-12-10T10:07:51;3.20;99.90
11569;DHT22;5840;46.894;15.542;2022-12-10T10:10:25;3.20;99.90
11569;DHT22;5840;46.894;15.542;2022-12-10T10:12:55;3.20;99.90
11569;DHT22;5840;46.894;15.542;2022-12-10T10:15:30;3.20;99.90
11569;DHT22;5840;46.894;15.542;2022-12-10T10:18:02;3.20;99.90
11569;DHT22;5840;46.894;15.542;2022-12-10T10:20:29;3.20;99.90
11569;DHT22;5840;46.894;15.542;2022-12-10T10:22:58;3.30;99.90
11569;DHT22;5840;46.894;15.542;2022-12-10T10:25:26;3.30;99.90
11569;DHT22;5840;46.894;15.542;2022-12-10T10:27:53;3.30;99.90
11569;DHT22;5840;46.894;15.542;2022-12-10T10:30:22;3.30;99.90
11569;DHT22;5840;46.894;15.542;2022-12-10T10:32:52;3.30;99.90
11569;DHT22;5840;46.894;15.542;2022-12-10T10:35:25;3.30;99.90
11569;DHT22;5840;46.894;15.542;2022-12-10T10:37:57;3.30;99.90
11569;DHT22;5840;46.894;15.542;2022-12-10T10:40:28;3.30;99.90
11569;DHT22;5840;46.894;15.542;2022-12-10T10:42:58;3.30;99.90
11569;DHT22;5840;46.894;15.542;2022-12-10T10:45:33;3.30;99.90
11569;DHT22;5840;46.894;15.542;2022-12-10T10:48:09;3.40;99.90
11569;DHT22;5840;46.894;15.542;2022-12-10T10:50:38;3.50;99.90
11569;DHT22;5840;46.894;15.542;2022-12-10T10:53:29;3.50;99.90
11569;DHT22;5840;46.894;15.542;2022-12-10T10:55:59;3.50;99.90
11569;DHT22;5840;46.894;15.542;2022-12-10T10:58:27;3.50;99.90
11569;DHT22;5840;46.894;15.542;2022-12-10T11:00:58;3.50;99.90
11569;DHT22;5840;46.894;15.542;2022-12-10T11:03:28;3.50;99.90
11569;DHT22;5840;46.894;15.542;2022-12-10T11:05:57;3.50;99.90
11569;DHT22;5840;46.894;15.542;2022-12-10T11:08:26;3.50;99.90
11569;DHT22;5840;46.894;15.542;2022-12-10T11:11:00;3.60;99.90
11569;DHT22;5840;46.894;15.542;2022-12-10T11:13:31;3.70;99.90
11569;DHT22;5840;46.894;15.542;2022-12-10T11:16:00;3.70;99.90
11569;DHT22;5840;46.894;15.542;2022-12-10T11:18:33;3.70;99.90
11569;DHT22;5840;46.894;15.542;2022-12-10T11:21:03;3.60;99.90
11569;DHT22;5840;46.894;15.542;2022-12-10T11:23:36;3.60;99.90
11569;DHT22;5840;46.894;15.542;2022-12-10T11:26:21;3.60;99.90
11569;DHT22;5840;46.894;15.542;2022-12-10T11:29:01;3.60;99.90
11569;DHT22;5840;46.894;15.542;2022-12-10T11:31:45;3.60;99.90
11569;DHT22;5840;46.894;15.542;2022-12-10T11:34:20;3.70;99.90
11569;DHT22;5840;46.894;15.542;2022-12-10T11:36:56;3.70;99.90
11569;DHT22;5840;46.894;15.542;2022-12-10T11:42:20;3.80;99.90
11569;DHT22;5840;46.894;15.542;2022-12-10T11:44:58;3.80;99.90
11569;DHT22;5840;46.894;15.542;2022-12-10T11:47:37;4.00;99.90
11569;DHT22;5840;46.894;15.542;2022-12-10T11:50:14;4.00;99.90
11569;DHT22;5840;46.894;15.542;2022-12-10T11:52:53;4.00;99.90
11569;DHT22;5840;46.894;15.542;2022-12-10T11:55:29;3.90;99.90
11569;DHT22;5840;46.894;15.542;2022-12-10T11:58:16;3.90;99.90
11569;DHT22;5840;46.894;15.542;2022-12-10T12:00:49;3.90;99.90
11569;DHT22;5840;46.894;15.542;2022-12-10T12:03:39;4.00;99.90
11569;DHT22;5840;46.894;15.542;2022-12-10T12:06:24;3.90;99.90
11569;DHT22;5840;46.894;15.542;2022-12-10T12:08:58;3.90;99.90
11569;DHT22;5840;46.894;15.542;2022-12-10T12:11:48;3.80;99.90
11569;DHT22;5840;46.894;15.542;2022-12-10T12:14:21;3.80;99.90
11569;DHT22;5840;46.894;15.542;2022-12-10T12:17:00;3.80;99.90
11569;DHT22;5840;46.894;15.542;2022-12-10T12:19:33;3.70;99.90
11569;DHT22;5840;46.894;15.542;2022-12-10T12:22:09;3.70;99.90
11569;DHT22;5840;46.894;15.542;2022-12-10T12:24:39;3.70;99.90
11569;DHT22;5840;46.894;15.542;2022-12-10T12:27:14;3.70;99.90
11569;DHT22;5840;46.894;15.542;2022-12-10T12:29:46;3.60;99.90
11569;DHT22;5840;46.894;15.542;2022-12-10T12:32:21;3.60;99.90
11569;DHT22;5840;46.894;15.542;2022-12-10T12:34:54;3.50;99.90
11569;DHT22;5840;46.894;15.542;2022-12-10T12:37:30;3.50;99.90
11569;DHT22;5840;46.894;15.542;2022-12-10T12:40:03;3.50;99.90
11569;DHT22;5840;46.894;15.542;2022-12-10T12:42:40;3.40;99.90
11569;DHT22;5840;46.894;15.542;2022-12-10T12:45:13;3.40;99.90
11569;DHT22;5840;46.894;15.542;2022-12-10T12:47:45;3.40;99.90
11569;DHT22;5840;46.894;15.542;2022-12-10T12:50:25;3.30;99.90
11569;DHT22;5840;46.894;15.542;2022-12-10T12:52:57;3.30;99.90
11569;DHT22;5840;46.894;15.542;2022-12-10T12:55:31;3.30;99.90
11569;DHT22;5840;46.894;15.542;2022-12-10T12:58:20;3.30;99.90
11569;DHT22;5840;46.894;15.542;2022-12-10T13:00:51;3.30;99.90
11569;DHT22;5840;46.894;15.542;2022-12-10T13:03:29;3.30;99.90
11569;DHT22;5840;46.894;15.542;2022-12-10T13:06:12;3.30;99.90
11569;DHT22;5840;46.894;15.542;2022-12-10T13:08:45;3.30;99.90
11569;DHT22;5840;46.894;15.542;2022-12-10T13:11:32;3.30;99.90
11569;DHT22;5840;46.894;15.542;2022-12-10T13:14:15;3.30;99.90
11569;DHT22;5840;46.894;15.542;2022-12-10T13:16:49;3.30;99.90
11569;DHT22;5840;46.894;15.542;2022-12-10T13:19:29;3.20;99.90
11569;DHT22;5840;46.894;15.542;2022-12-10T13:22:07;3.20;99.90
11569;DHT22;5840;46.894;15.542;2022-12-10T13:25:09;3.30;99.90
11569;DHT22;5840;46.894;15.542;2022-12-10T13:27:36;3.20;99.90
11569;DHT22;5840;46.894;15.542;2022-12-10T13:32:53;3.30;99.90
11569;DHT22;5840;46.894;15.542;2022-12-10T13:35:28;3.30;99.90
11569;DHT22;5840;46.894;15.542;2022-12-10T13:38:02;3.30;99.90
11569;DHT22;5840;46.894;15.542;2022-12-10T13:40:41;3.30;99.90
11569;DHT22;5840;46.894;15.542;2022-12-10T13:43:28;3.30;99.90
11569;DHT22;5840;46.894;15.542;2022-12-10T13:46:25;3.20;99.90
11569;DHT22;5840;46.894;15.542;2022-12-10T13:48:54;3.20;99.90
11569;DHT22;5840;46.894;15.542;2022-12-10T13:51:37;3.20;99.90
11569;DHT22;5840;46.894;15.542;2022-12-10T13:54:28;3.20;99.90
11569;DHT22;5840;46.894;15.542;2022-12-10T13:57:04;3.10;99.90
11569;DHT22;5840;46.894;15.542;2022-12-10T13:59:41;3.10;99.90
11569;DHT22;5840;46.894;15.542;2022-12-10T14:02:41;3.10;99.90
11569;DHT22;5840;46.894;15.542;2022-12-10T14:05:34;3.10;99.90
11569;DHT22;5840;46.894;15.542;2022-12-10T14:08:05;3.10;99.90
11569;DHT22;5840;46.894;15.542;2022-12-10T14:10:37;3.10;99.90
11569;DHT22;5840;46.894;15.542;2022-12-10T14:13:05;3.00;99.90
11569;DHT22;5840;46.894;15.542;2022-12-10T14:15:35;3.00;99.90
11569;DHT22;5840;46.894;15.542;2022-12-10T14:18:09;3.00;99.90
11569;DHT22;5840;46.894;15.542;2022-12-10T14:20:41;3.00;99.90
11569;DHT22;5840;46.894;15.542;2022-12-10T14:23:22;3.00;99.90
11569;DHT22;5840;46.894;15.542;2022-12-10T14:26:09;2.90;99.90
11569;DHT22;5840;46.894;15.542;2022-12-10T14:28:40;3.00;99.90
11569;DHT22;5840;46.894;15.542;2022-12-10T14:31:13;2.90;99.90
11569;DHT22;5840;46.894;15.542;2022-12-10T14:33:44;2.90;99.90
11569;DHT22;5840;46.894;15.542;2022-12-10T14:36:27;2.90;99.90
11569;DHT22;5840;46.894;15.542;2022-12-10T14:38:55;2.90;99.90
11569;DHT22;5840;46.894;15.542;2022-12-10T14:41:23;2.80;99.90
11569;DHT22;5840;46.894;15.542;2022-12-10T14:43:52;2.80;99.90
11569;DHT22;5840;46.894;15.542;2022-12-10T14:46:22;2.80;99.90
11569;DHT22;5840;46.894;15.542;2022-12-10T14:48:51;2.80;99.90
11569;DHT22;5840;46.894;15.542;2022-12-10T14:51:22;2.70;99.90
11569;DHT22;5840;46.894;15.542;2022-12-10T14:53:50;2.70;99.90
11569;DHT22;5840;46.894;15.542;2022-12-10T14:56:22;2.70;99.90
11569;DHT22;5840;46.894;15.542;2022-12-10T14:58:57;2.60;99.90
11569;DHT22;5840;46.894;15.542;2022-12-10T15:01:29;2.60;99.90
11569;DHT22;5840;46.894;15.542;2022-12-10T15:04:00;2.60;99.90
11569;DHT22;5840;46.894;15.542;2022-12-10T15:06:31;2.60;99.90
11569;DHT22;5840;46.894;15.542;2022-12-10T15:08:59;2.50;99.90
11569;DHT22;5840;46.894;15.542;2022-12-10T15:11:27;2.50;99.90
11569;DHT22;5840;46.894;15.542;2022-12-10T15:13:59;2.50;99.90
11569;DHT22;5840;46.894;15.542;2022-12-10T15:16:38;2.50;99.90
11569;DHT22;5840;46.894;15.542;2022-12-10T15:19:16;2.40;99.90
11569;DHT22;5840;46.894;15.542;2022-12-10T15:21:45;2.40;99.90
11569;DHT22;5840;46.894;15.542;2022-12-10T15:24:19;2.30;99.90
11569;DHT22;5840;46.894;15.542;2022-12-10T15:26:48;2.30;99.90
11569;DHT22;5840;46.894;15.542;2022-12-10T15:29:31;2.30;99.90
11569;DHT22;5840;46.894;15.542;2022-12-10T15:32:05;2.30;99.90
11569;DHT22;5840;46.894;15.542;2022-12-10T15:34:39;2.20;99.90
11569;DHT22;5840;46.894;15.542;2022-12-10T15:37:16;2.20;99.90
11569;DHT22;5840;46.894;15.542;2022-12-10T15:39:47;2.20;99.90
11569;DHT22;5840;46.894;15.542;2022-12-10T15:42:30;2.10;99.90
11569;DHT22;5840;46.894;15.542;2022-12-10T15:45:03;2.10;99.90
11569;DHT22;5840;46.894;15.542;2022-12-10T15:47:31;2.00;99.90
11569;DHT22;5840;46.894;15.542;2022-12-10T15:50:04;1.90;99.90
11569;DHT22;5840;46.894;15.542;2022-12-10T15:52:32;1.90;99.90
11569;DHT22;5840;46.894;15.542;2022-12-10T15:55:04;1.80;99.90
11569;DHT22;5840;46.894;15.542;2022-12-10T15:57:33;1.90;99.90
11569;DHT22;5840;46.894;15.542;2022-12-10T16:00:05;1.80;99.90
11569;DHT22;5840;46.894;15.542;2022-12-10T16:02:37;1.80;99.90
11569;DHT22;5840;46.894;15.542;2022-12-10T16:05:12;1.80;99.90
11569;DHT22;5840;46.894;15.542;2022-12-10T16:07:40;1.80;99.90
11569;DHT22;5840;46.894;15.542;2022-12-10T16:10:08;1.70;99.90
11569;DHT22;5840;46.894;15.542;2022-12-10T16:12:37;1.70;99.90
11569;DHT22;5840;46.894;15.542;2022-12-10T16:15:15;1.70;99.90